sensor_id;sensor_type;location;lat;lon;timestamp;P1;durP1;ratioP1;P2;durP2;ratioP2
21089;SDS011;10703;51.020;6.128;2023-09-30T00:02:22;34.57;;;13.33;;
21089;SDS011;10703;51.020;6.128;2023-09-30T00:04:49;31.30;;;13.27;;
21089;SDS011;10703;51.020;6.128;2023-09-30T00:07:15;29.03;;;14.10;;
21089;SDS011;10703;51.020;6.128;2023-09-30T00:09:42;29.33;;;12.93;;
21089;SDS011;10703;51.020;6.128;2023-09-30T00:12:09;29.87;;;14.60;;
21089;SDS011;10703;51.020;6.128;2023-09-30T00:14:36;27.37;;;13.63;;
21089;SDS011;10703;51.020;6.128;2023-09-30T00:17:03;32.97;;;14.23;;
21089;SDS011;10703;51.020;6.128;2023-09-30T00:19:30;37.50;;;14.20;;
21089;SDS011;10703;51.020;6.128;2023-09-30T00:21:59;31.23;;;13.90;;
21089;SDS011;10703;51.020;6.128;2023-09-30T00:24:26;31.60;;;14.90;;
21089;SDS011;10703;51.020;6.128;2023-09-30T00:26:53;27.90;;;14.40;;
21089;SDS011;10703;51.020;6.128;2023-09-30T00:29:19;44.90;;;17.30;;
21089;SDS011;10703;51.020;6.128;2023-09-30T00:31:46;45.33;;;18.17;;
21089;SDS011;10703;51.020;6.128;2023-09-30T00:34:13;39.23;;;17.60;;
21089;SDS011;10703;51.020;6.128;2023-09-30T00:36:40;48.97;;;19.87;;
21089;SDS011;10703;51.020;6.128;2023-09-30T00:39:07;45.53;;;18.77;;
21089;SDS011;10703;51.020;6.128;2023-09-30T00:41:35;56.20;;;20.07;;
21089;SDS011;10703;51.020;6.128;2023-09-30T00:44:04;46.37;;;18.10;;
21089;SDS011;10703;51.020;6.128;2023-09-30T00:46:32;43.03;;;17.67;;
21089;SDS011;10703;51.020;6.128;2023-09-30T00:49:01;42.63;;;19.43;;
21089;SDS011;10703;51.020;6.128;2023-09-30T00:51:29;45.23;;;18.17;;
21089;SDS011;10703;51.020;6.128;2023-09-30T00:53:58;39.13;;;18.17;;
21089;SDS011;10703;51.020;6.128;2023-09-30T00:56:27;44.73;;;17.57;;
21089;SDS011;10703;51.020;6.128;2023-09-30T00:58:56;40.50;;;18.37;;
21089;SDS011;10703;51.020;6.128;2023-09-30T01:01:23;41.10;;;17.53;;
21089;SDS011;10703;51.020;6.128;2023-09-30T01:03:50;43.27;;;18.53;;
21089;SDS011;10703;51.020;6.128;2023-09-30T01:06:17;43.73;;;17.80;;
21089;SDS011;10703;51.020;6.128;2023-09-30T01:08:44;47.27;;;19.30;;
21089;SDS011;10703;51.020;6.128;2023-09-30T01:11:11;47.67;;;19.97;;
21089;SDS011;10703;51.020;6.128;2023-09-30T01:13:39;53.27;;;21.27;;
21089;SDS011;10703;51.020;6.128;2023-09-30T01:16:06;64.43;;;24.33;;
21089;SDS011;10703;51.020;6.128;2023-09-30T01:18:38;64.27;;;23.10;;
21089;SDS011;10703;51.020;6.128;2023-09-30T01:21:06;72.80;;;24.53;;
21089;SDS011;10703;51.020;6.128;2023-09-30T01:23:33;75.37;;;23.97;;
21089;SDS011;10703;51.020;6.128;2023-09-30T01:26:05;69.67;;;25.20;;
21089;SDS011;10703;51.020;6.128;2023-09-30T01:28:35;67.60;;;25.43;;
21089;SDS011;10703;51.020;6.128;2023-09-30T01:31:02;77.73;;;27.10;;
21089;SDS011;10703;51.020;6.128;2023-09-30T01:33:28;84.77;;;26.37;;
21089;SDS011;10703;51.020;6.128;2023-09-30T01:35:55;78.17;;;26.73;;
21089;SDS011;10703;51.020;6.128;2023-09-30T01:38:22;88.90;;;27.53;;
21089;SDS011;10703;51.020;6.128;2023-09-30T01:40:49;85.03;;;26.87;;
21089;SDS011;10703;51.020;6.128;2023-09-30T01:43:15;83.27;;;28.17;;
21089;SDS011;10703;51.020;6.128;2023-09-30T01:45:43;92.33;;;28.30;;
21089;SDS011;10703;51.020;6.128;2023-09-30T01:48:10;97.33;;;28.50;;
21089;SDS011;10703;51.020;6.128;2023-09-30T01:50:38;82.27;;;27.70;;
21089;SDS011;10703;51.020;6.128;2023-09-30T01:53:05;86.37;;;28.23;;
21089;SDS011;10703;51.020;6.128;2023-09-30T01:55:33;90.60;;;27.87;;
21089;SDS011;10703;51.020;6.128;2023-09-30T01:58:00;86.57;;;28.40;;
21089;SDS011;10703;51.020;6.128;2023-09-30T02:00:27;86.70;;;27.53;;
21089;SDS011;10703;51.020;6.128;2023-09-30T02:02:55;79.30;;;26.73;;
21089;SDS011;10703;51.020;6.128;2023-09-30T02:05:22;86.53;;;27.17;;
21089;SDS011;10703;51.020;6.128;2023-09-30T02:07:50;88.90;;;27.10;;
21089;SDS011;10703;51.020;6.128;2023-09-30T02:10:17;85.30;;;27.73;;
21089;SDS011;10703;51.020;6.128;2023-09-30T02:12:45;75.67;;;26.43;;
21089;SDS011;10703;51.020;6.128;2023-09-30T02:15:12;81.03;;;27.13;;
21089;SDS011;10703;51.020;6.128;2023-09-30T02:17:40;72.37;;;25.53;;
21089;SDS011;10703;51.020;6.128;2023-09-30T02:20:11;84.00;;;25.97;;
21089;SDS011;10703;51.020;6.128;2023-09-30T02:22:42;78.73;;;27.00;;
21089;SDS011;10703;51.020;6.128;2023-09-30T02:25:10;85.93;;;27.47;;
21089;SDS011;10703;51.020;6.128;2023-09-30T02:27:41;86.67;;;26.20;;
21089;SDS011;10703;51.020;6.128;2023-09-30T02:30:09;85.43;;;27.43;;
21089;SDS011;10703;51.020;6.128;2023-09-30T02:32:38;87.40;;;27.23;;
21089;SDS011;10703;51.020;6.128;2023-09-30T02:35:06;96.03;;;28.83;;
21089;SDS011;10703;51.020;6.128;2023-09-30T02:37:34;96.33;;;28.27;;
21089;SDS011;10703;51.020;6.128;2023-09-30T02:40:04;110.07;;;30.20;;
21089;SDS011;10703;51.020;6.128;2023-09-30T02:42:32;201.90;;;117.17;;
21089;SDS011;10703;51.020;6.128;2023-09-30T02:44:59;92.73;;;28.87;;
21089;SDS011;10703;51.020;6.128;2023-09-30T02:47:27;86.37;;;27.70;;
21089;SDS011;10703;51.020;6.128;2023-09-30T02:49:56;88.20;;;28.50;;
21089;SDS011;10703;51.020;6.128;2023-09-30T02:52:24;82.53;;;29.03;;
21089;SDS011;10703;51.020;6.128;2023-09-30T02:54:50;93.17;;;29.80;;
21089;SDS011;10703;51.020;6.128;2023-09-30T02:57:18;95.10;;;30.10;;
21089;SDS011;10703;51.020;6.128;2023-09-30T02:59:45;91.97;;;29.63;;
21089;SDS011;10703;51.020;6.128;2023-09-30T03:02:12;100.37;;;28.87;;
21089;SDS011;10703;51.020;6.128;2023-09-30T03:04:39;95.70;;;28.33;;
21089;SDS011;10703;51.020;6.128;2023-09-30T03:07:05;100.40;;;29.23;;
21089;SDS011;10703;51.020;6.128;2023-09-30T03:09:33;102.73;;;29.63;;
21089;SDS011;10703;51.020;6.128;2023-09-30T03:12:00;100.93;;;27.67;;
21089;SDS011;10703;51.020;6.128;2023-09-30T03:14:28;90.87;;;28.23;;
21089;SDS011;10703;51.020;6.128;2023-09-30T03:17:00;93.50;;;29.30;;
21089;SDS011;10703;51.020;6.128;2023-09-30T03:19:26;94.33;;;28.13;;
21089;SDS011;10703;51.020;6.128;2023-09-30T03:21:53;92.13;;;28.80;;
21089;SDS011;10703;51.020;6.128;2023-09-30T03:24:20;80.13;;;26.77;;
21089;SDS011;10703;51.020;6.128;2023-09-30T03:26:47;83.30;;;28.40;;
21089;SDS011;10703;51.020;6.128;2023-09-30T03:29:14;87.40;;;27.57;;
21089;SDS011;10703;51.020;6.128;2023-09-30T03:31:40;88.17;;;28.97;;
21089;SDS011;10703;51.020;6.128;2023-09-30T03:34:07;95.73;;;29.23;;
21089;SDS011;10703;51.020;6.128;2023-09-30T03:36:34;88.57;;;29.00;;
21089;SDS011;10703;51.020;6.128;2023-09-30T03:39:02;92.53;;;29.43;;
21089;SDS011;10703;51.020;6.128;2023-09-30T03:41:33;105.10;;;30.70;;
21089;SDS011;10703;51.020;6.128;2023-09-30T03:44:03;102.60;;;30.70;;
21089;SDS011;10703;51.020;6.128;2023-09-30T03:46:29;108.03;;;31.27;;
21089;SDS011;10703;51.020;6.128;2023-09-30T03:48:56;95.27;;;30.10;;
21089;SDS011;10703;51.020;6.128;2023-09-30T03:51:23;85.83;;;29.80;;
21089;SDS011;10703;51.020;6.128;2023-09-30T03:53:51;103.80;;;31.03;;
21089;SDS011;10703;51.020;6.128;2023-09-30T03:56:18;97.63;;;30.80;;
21089;SDS011;10703;51.020;6.128;2023-09-30T03:58:45;91.57;;;31.43;;
21089;SDS011;10703;51.020;6.128;2023-09-30T04:01:14;96.57;;;31.90;;
21089;SDS011;10703;51.020;6.128;2023-09-30T04:03:42;102.17;;;32.77;;
21089;SDS011;10703;51.020;6.128;2023-09-30T04:06:10;91.57;;;31.00;;
21089;SDS011;10703;51.020;6.128;2023-09-30T04:08:38;99.30;;;30.03;;
21089;SDS011;10703;51.020;6.128;2023-09-30T04:11:05;102.00;;;32.87;;
21089;SDS011;10703;51.020;6.128;2023-09-30T04:13:31;99.63;;;31.60;;
21089;SDS011;10703;51.020;6.128;2023-09-30T04:16:00;98.60;;;32.47;;
21089;SDS011;10703;51.020;6.128;2023-09-30T04:18:27;94.30;;;33.10;;
21089;SDS011;10703;51.020;6.128;2023-09-30T04:20:54;106.63;;;36.13;;
21089;SDS011;10703;51.020;6.128;2023-09-30T04:23:20;103.90;;;34.67;;
21089;SDS011;10703;51.020;6.128;2023-09-30T04:25:48;119.53;;;35.83;;
21089;SDS011;10703;51.020;6.128;2023-09-30T04:28:15;111.87;;;35.13;;
21089;SDS011;10703;51.020;6.128;2023-09-30T04:30:47;103.63;;;33.73;;
21089;SDS011;10703;51.020;6.128;2023-09-30T04:33:15;105.00;;;35.57;;
21089;SDS011;10703;51.020;6.128;2023-09-30T04:35:43;120.80;;;37.53;;
21089;SDS011;10703;51.020;6.128;2023-09-30T04:38:11;116.40;;;35.90;;
21089;SDS011;10703;51.020;6.128;2023-09-30T04:40:39;119.67;;;37.40;;
21089;SDS011;10703;51.020;6.128;2023-09-30T04:43:05;126.60;;;39.00;;
21089;SDS011;10703;51.020;6.128;2023-09-30T04:45:32;123.70;;;37.60;;
21089;SDS011;10703;51.020;6.128;2023-09-30T04:47:59;134.73;;;36.63;;
21089;SDS011;10703;51.020;6.128;2023-09-30T04:50:28;124.23;;;36.30;;
21089;SDS011;10703;51.020;6.128;2023-09-30T04:52:56;132.30;;;34.23;;
21089;SDS011;10703;51.020;6.128;2023-09-30T04:55:24;130.53;;;34.77;;
21089;SDS011;10703;51.020;6.128;2023-09-30T04:57:50;130.23;;;36.20;;
21089;SDS011;10703;51.020;6.128;2023-09-30T05:00:18;126.00;;;34.30;;
21089;SDS011;10703;51.020;6.128;2023-09-30T05:02:51;131.60;;;32.97;;
21089;SDS011;10703;51.020;6.128;2023-09-30T05:05:18;139.87;;;35.67;;
21089;SDS011;10703;51.020;6.128;2023-09-30T05:07:45;137.47;;;35.70;;
21089;SDS011;10703;51.020;6.128;2023-09-30T05:10:13;125.07;;;34.90;;
21089;SDS011;10703;51.020;6.128;2023-09-30T05:12:42;119.97;;;34.23;;
21089;SDS011;10703;51.020;6.128;2023-09-30T05:15:13;121.30;;;34.63;;
21089;SDS011;10703;51.020;6.128;2023-09-30T05:17:42;111.97;;;33.87;;
21089;SDS011;10703;51.020;6.128;2023-09-30T05:20:10;124.97;;;35.13;;
21089;SDS011;10703;51.020;6.128;2023-09-30T05:22:39;116.80;;;35.43;;
21089;SDS011;10703;51.020;6.128;2023-09-30T05:25:11;126.17;;;34.10;;
21089;SDS011;10703;51.020;6.128;2023-09-30T05:27:38;127.90;;;35.93;;
21089;SDS011;10703;51.020;6.128;2023-09-30T05:30:05;133.40;;;35.33;;
21089;SDS011;10703;51.020;6.128;2023-09-30T05:32:33;130.23;;;35.07;;
21089;SDS011;10703;51.020;6.128;2023-09-30T05:35:05;126.83;;;34.97;;
21089;SDS011;10703;51.020;6.128;2023-09-30T05:37:32;123.37;;;33.93;;
21089;SDS011;10703;51.020;6.128;2023-09-30T05:39:59;134.70;;;35.73;;
21089;SDS011;10703;51.020;6.128;2023-09-30T05:42:25;127.30;;;34.53;;
21089;SDS011;10703;51.020;6.128;2023-09-30T05:44:52;127.67;;;32.13;;
21089;SDS011;10703;51.020;6.128;2023-09-30T05:47:19;126.53;;;34.37;;
21089;SDS011;10703;51.020;6.128;2023-09-30T05:49:46;128.00;;;33.87;;
21089;SDS011;10703;51.020;6.128;2023-09-30T05:52:12;135.50;;;32.87;;
21089;SDS011;10703;51.020;6.128;2023-09-30T05:54:39;119.73;;;30.77;;
21089;SDS011;10703;51.020;6.128;2023-09-30T05:57:06;114.20;;;29.83;;
21089;SDS011;10703;51.020;6.128;2023-09-30T05:59:34;115.53;;;31.83;;
21089;SDS011;10703;51.020;6.128;2023-09-30T06:02:00;121.30;;;31.63;;
21089;SDS011;10703;51.020;6.128;2023-09-30T06:04:29;117.83;;;31.37;;
21089;SDS011;10703;51.020;6.128;2023-09-30T06:06:56;116.43;;;29.87;;
21089;SDS011;10703;51.020;6.128;2023-09-30T06:09:22;121.57;;;30.40;;
21089;SDS011;10703;51.020;6.128;2023-09-30T06:11:51;114.87;;;30.63;;
21089;SDS011;10703;51.020;6.128;2023-09-30T06:14:18;117.50;;;30.77;;
21089;SDS011;10703;51.020;6.128;2023-09-30T06:16:44;106.67;;;27.73;;
21089;SDS011;10703;51.020;6.128;2023-09-30T06:19:11;123.60;;;30.87;;
21089;SDS011;10703;51.020;6.128;2023-09-30T06:21:37;121.93;;;31.53;;
21089;SDS011;10703;51.020;6.128;2023-09-30T06:24:05;114.03;;;29.40;;
21089;SDS011;10703;51.020;6.128;2023-09-30T06:26:32;112.57;;;29.30;;
21089;SDS011;10703;51.020;6.128;2023-09-30T06:28:59;116.77;;;31.13;;
21089;SDS011;10703;51.020;6.128;2023-09-30T06:31:26;129.10;;;35.77;;
21089;SDS011;10703;51.020;6.128;2023-09-30T06:33:54;122.47;;;32.07;;
21089;SDS011;10703;51.020;6.128;2023-09-30T06:36:24;115.37;;;30.60;;
21089;SDS011;10703;51.020;6.128;2023-09-30T06:38:51;120.97;;;30.97;;
21089;SDS011;10703;51.020;6.128;2023-09-30T06:41:18;115.07;;;30.53;;
21089;SDS011;10703;51.020;6.128;2023-09-30T06:43:45;121.60;;;31.43;;
21089;SDS011;10703;51.020;6.128;2023-09-30T06:46:12;114.47;;;29.57;;
21089;SDS011;10703;51.020;6.128;2023-09-30T06:48:39;118.50;;;30.53;;
21089;SDS011;10703;51.020;6.128;2023-09-30T06:51:06;106.47;;;30.03;;
21089;SDS011;10703;51.020;6.128;2023-09-30T06:53:33;108.93;;;30.57;;
21089;SDS011;10703;51.020;6.128;2023-09-30T06:56:00;102.53;;;30.00;;
21089;SDS011;10703;51.020;6.128;2023-09-30T06:58:31;125.07;;;31.50;;
21089;SDS011;10703;51.020;6.128;2023-09-30T07:00:57;120.40;;;31.80;;
21089;SDS011;10703;51.020;6.128;2023-09-30T07:03:24;113.73;;;31.07;;
21089;SDS011;10703;51.020;6.128;2023-09-30T07:05:52;108.27;;;30.43;;
21089;SDS011;10703;51.020;6.128;2023-09-30T07:08:20;113.67;;;32.37;;
21089;SDS011;10703;51.020;6.128;2023-09-30T07:10:47;107.50;;;31.70;;
21089;SDS011;10703;51.020;6.128;2023-09-30T07:13:16;109.67;;;31.77;;
21089;SDS011;10703;51.020;6.128;2023-09-30T07:15:44;144.67;;;62.40;;
21089;SDS011;10703;51.020;6.128;2023-09-30T07:18:11;116.90;;;33.37;;
21089;SDS011;10703;51.020;6.128;2023-09-30T07:20:38;121.70;;;33.33;;
21089;SDS011;10703;51.020;6.128;2023-09-30T07:23:05;123.67;;;33.60;;
21089;SDS011;10703;51.020;6.128;2023-09-30T07:25:44;124.73;;;34.27;;
21089;SDS011;10703;51.020;6.128;2023-09-30T07:28:11;107.37;;;30.70;;
21089;SDS011;10703;51.020;6.128;2023-09-30T07:30:39;111.77;;;32.13;;
21089;SDS011;10703;51.020;6.128;2023-09-30T07:33:06;97.90;;;30.27;;
21089;SDS011;10703;51.020;6.128;2023-09-30T07:35:33;76.10;;;26.20;;
21089;SDS011;10703;51.020;6.128;2023-09-30T07:38:00;72.73;;;24.70;;
21089;SDS011;10703;51.020;6.128;2023-09-30T07:40:27;78.07;;;24.73;;
21089;SDS011;10703;51.020;6.128;2023-09-30T07:42:54;65.77;;;24.63;;
21089;SDS011;10703;51.020;6.128;2023-09-30T07:45:22;62.30;;;23.00;;
21089;SDS011;10703;51.020;6.128;2023-09-30T07:47:49;55.87;;;23.90;;
21089;SDS011;10703;51.020;6.128;2023-09-30T07:50:17;51.50;;;21.77;;
21089;SDS011;10703;51.020;6.128;2023-09-30T07:52:44;42.03;;;19.57;;
21089;SDS011;10703;51.020;6.128;2023-09-30T07:55:11;36.20;;;17.97;;
21089;SDS011;10703;51.020;6.128;2023-09-30T07:57:39;31.23;;;16.97;;
21089;SDS011;10703;51.020;6.128;2023-09-30T08:00:08;37.53;;;17.07;;
21089;SDS011;10703;51.020;6.128;2023-09-30T08:02:36;25.27;;;16.03;;
21089;SDS011;10703;51.020;6.128;2023-09-30T08:05:03;27.90;;;14.80;;
21089;SDS011;10703;51.020;6.128;2023-09-30T08:07:32;20.40;;;14.37;;
21089;SDS011;10703;51.020;6.128;2023-09-30T08:10:00;29.07;;;14.27;;
21089;SDS011;10703;51.020;6.128;2023-09-30T08:12:30;17.20;;;12.10;;
21089;SDS011;10703;51.020;6.128;2023-09-30T08:14:58;18.60;;;12.57;;
21089;SDS011;10703;51.020;6.128;2023-09-30T08:17:24;17.57;;;13.10;;
21089;SDS011;10703;51.020;6.128;2023-09-30T08:19:51;14.17;;;11.87;;
21089;SDS011;10703;51.020;6.128;2023-09-30T08:22:18;19.80;;;12.23;;
21089;SDS011;10703;51.020;6.128;2023-09-30T08:24:45;17.30;;;12.17;;
21089;SDS011;10703;51.020;6.128;2023-09-30T08:27:11;21.40;;;13.13;;
21089;SDS011;10703;51.020;6.128;2023-09-30T08:29:38;15.20;;;11.63;;
21089;SDS011;10703;51.020;6.128;2023-09-30T08:32:04;21.27;;;11.63;;
21089;SDS011;10703;51.020;6.128;2023-09-30T08:34:31;12.77;;;11.07;;
21089;SDS011;10703;51.020;6.128;2023-09-30T08:36:57;17.63;;;10.93;;
21089;SDS011;10703;51.020;6.128;2023-09-30T08:39:25;15.07;;;10.73;;
21089;SDS011;10703;51.020;6.128;2023-09-30T08:41:51;12.50;;;10.47;;
21089;SDS011;10703;51.020;6.128;2023-09-30T08:44:19;12.37;;;9.70;;
21089;SDS011;10703;51.020;6.128;2023-09-30T08:46:46;16.15;;;10.27;;
21089;SDS011;10703;51.020;6.128;2023-09-30T08:49:14;9.75;;;8.75;;
21089;SDS011;10703;51.020;6.128;2023-09-30T08:51:41;15.23;;;9.55;;
21089;SDS011;10703;51.020;6.128;2023-09-30T08:54:09;12.80;;;8.52;;
21089;SDS011;10703;51.020;6.128;2023-09-30T08:56:36;12.70;;;8.02;;
21089;SDS011;10703;51.020;6.128;2023-09-30T08:59:06;10.52;;;8.73;;
21089;SDS011;10703;51.020;6.128;2023-09-30T09:01:34;11.70;;;7.93;;
21089;SDS011;10703;51.020;6.128;2023-09-30T09:04:01;13.55;;;8.32;;
21089;SDS011;10703;51.020;6.128;2023-09-30T09:06:29;10.35;;;8.13;;
21089;SDS011;10703;51.020;6.128;2023-09-30T09:09:12;12.93;;;8.68;;
21089;SDS011;10703;51.020;6.128;2023-09-30T09:11:40;15.05;;;8.57;;
21089;SDS011;10703;51.020;6.128;2023-09-30T09:14:06;12.25;;;8.23;;
21089;SDS011;10703;51.020;6.128;2023-09-30T09:16:33;9.88;;;8.02;;
21089;SDS011;10703;51.020;6.128;2023-09-30T09:19:03;11.63;;;7.68;;
21089;SDS011;10703;51.020;6.128;2023-09-30T09:21:41;9.02;;;7.45;;
21089;SDS011;10703;51.020;6.128;2023-09-30T09:24:30;11.45;;;7.80;;
21089;SDS011;10703;51.020;6.128;2023-09-30T09:27:19;10.23;;;7.10;;
21089;SDS011;10703;51.020;6.128;2023-09-30T09:29:48;8.30;;;6.82;;
21089;SDS011;10703;51.020;6.128;2023-09-30T09:32:16;10.00;;;7.18;;
21089;SDS011;10703;51.020;6.128;2023-09-30T09:34:44;12.43;;;7.25;;
21089;SDS011;10703;51.020;6.128;2023-09-30T09:39:50;9.90;;;6.55;;
21089;SDS011;10703;51.020;6.128;2023-09-30T09:42:29;8.25;;;6.55;;
21089;SDS011;10703;51.020;6.128;2023-09-30T09:45:04;9.75;;;5.32;;
21089;SDS011;10703;51.020;6.128;2023-09-30T09:47:32;10.20;;;6.15;;
21089;SDS011;10703;51.020;6.128;2023-09-30T09:49:59;11.23;;;5.60;;
21089;SDS011;10703;51.020;6.128;2023-09-30T09:52:29;8.95;;;5.70;;
21089;SDS011;10703;51.020;6.128;2023-09-30T09:54:57;11.98;;;6.70;;
21089;SDS011;10703;51.020;6.128;2023-09-30T09:57:25;7.85;;;6.25;;
21089;SDS011;10703;51.020;6.128;2023-09-30T09:59:53;8.25;;;6.00;;
21089;SDS011;10703;51.020;6.128;2023-09-30T10:02:24;10.15;;;6.43;;
21089;SDS011;10703;51.020;6.128;2023-09-30T10:04:53;8.63;;;5.95;;
21089;SDS011;10703;51.020;6.128;2023-09-30T10:07:25;7.18;;;5.80;;
21089;SDS011;10703;51.020;6.128;2023-09-30T10:09:54;9.00;;;5.95;;
21089;SDS011;10703;51.020;6.128;2023-09-30T10:12:24;6.55;;;5.88;;
21089;SDS011;10703;51.020;6.128;2023-09-30T10:14:52;7.72;;;5.60;;
21089;SDS011;10703;51.020;6.128;2023-09-30T10:17:19;9.35;;;5.35;;
21089;SDS011;10703;51.020;6.128;2023-09-30T10:22:36;6.15;;;4.93;;
21089;SDS011;10703;51.020;6.128;2023-09-30T10:25:32;8.43;;;4.93;;
21089;SDS011;10703;51.020;6.128;2023-09-30T10:27:59;5.40;;;4.90;;
21089;SDS011;10703;51.020;6.128;2023-09-30T10:30:26;9.57;;;5.40;;
21089;SDS011;10703;51.020;6.128;2023-09-30T10:35:21;7.72;;;4.97;;
21089;SDS011;10703;51.020;6.128;2023-09-30T10:40:53;7.55;;;5.03;;
21089;SDS011;10703;51.020;6.128;2023-09-30T10:43:30;9.10;;;5.50;;
21089;SDS011;10703;51.020;6.128;2023-09-30T10:45:58;7.80;;;5.55;;
21089;SDS011;10703;51.020;6.128;2023-09-30T10:50:56;7.50;;;5.82;;
21089;SDS011;10703;51.020;6.128;2023-09-30T10:53:30;8.23;;;5.45;;
21089;SDS011;10703;51.020;6.128;2023-09-30T10:55:57;8.18;;;5.40;;
21089;SDS011;10703;51.020;6.128;2023-09-30T11:01:15;10.07;;;5.63;;
21089;SDS011;10703;51.020;6.128;2023-09-30T11:03:44;9.05;;;5.55;;
21089;SDS011;10703;51.020;6.128;2023-09-30T11:06:13;11.98;;;5.45;;
21089;SDS011;10703;51.020;6.128;2023-09-30T11:08:50;7.50;;;5.20;;
21089;SDS011;10703;51.020;6.128;2023-09-30T11:11:19;8.30;;;5.20;;
21089;SDS011;10703;51.020;6.128;2023-09-30T11:16:56;8.40;;;5.38;;
21089;SDS011;10703;51.020;6.128;2023-09-30T11:19:25;9.63;;;5.38;;
21089;SDS011;10703;51.020;6.128;2023-09-30T11:21:59;7.80;;;5.10;;
21089;SDS011;10703;51.020;6.128;2023-09-30T11:24:26;8.20;;;5.38;;
21089;SDS011;10703;51.020;6.128;2023-09-30T11:26:55;8.38;;;5.07;;
21089;SDS011;10703;51.020;6.128;2023-09-30T11:29:22;9.05;;;5.18;;
21089;SDS011;10703;51.020;6.128;2023-09-30T11:31:49;7.10;;;4.72;;
21089;SDS011;10703;51.020;6.128;2023-09-30T11:34:17;6.25;;;4.60;;
21089;SDS011;10703;51.020;6.128;2023-09-30T11:36:49;9.15;;;5.15;;
21089;SDS011;10703;51.020;6.128;2023-09-30T11:41:51;7.35;;;5.20;;
21089;SDS011;10703;51.020;6.128;2023-09-30T11:44:18;8.27;;;5.45;;
21089;SDS011;10703;51.020;6.128;2023-09-30T11:46:49;13.63;;;5.32;;
21089;SDS011;10703;51.020;6.128;2023-09-30T11:51:57;10.80;;;5.50;;
21089;SDS011;10703;51.020;6.128;2023-09-30T11:54:29;7.90;;;5.30;;
21089;SDS011;10703;51.020;6.128;2023-09-30T11:57:13;7.45;;;5.47;;
21089;SDS011;10703;51.020;6.128;2023-09-30T11:59:45;7.97;;;5.30;;
21089;SDS011;10703;51.020;6.128;2023-09-30T12:02:12;11.73;;;5.50;;
21089;SDS011;10703;51.020;6.128;2023-09-30T12:04:41;6.85;;;5.05;;
21089;SDS011;10703;51.020;6.128;2023-09-30T12:07:10;6.32;;;5.18;;
21089;SDS011;10703;51.020;6.128;2023-09-30T12:09:37;7.85;;;4.70;;
21089;SDS011;10703;51.020;6.128;2023-09-30T12:12:05;6.78;;;5.00;;
21089;SDS011;10703;51.020;6.128;2023-09-30T12:14:37;8.88;;;4.90;;
21089;SDS011;10703;51.020;6.128;2023-09-30T12:17:03;8.23;;;5.18;;
21089;SDS011;10703;51.020;6.128;2023-09-30T12:19:30;9.10;;;4.63;;
21089;SDS011;10703;51.020;6.128;2023-09-30T12:21:57;6.18;;;4.65;;
21089;SDS011;10703;51.020;6.128;2023-09-30T12:24:24;13.00;;;4.60;;
21089;SDS011;10703;51.020;6.128;2023-09-30T12:26:52;8.88;;;4.70;;
21089;SDS011;10703;51.020;6.128;2023-09-30T12:29:21;8.25;;;5.15;;
21089;SDS011;10703;51.020;6.128;2023-09-30T12:31:49;10.63;;;4.85;;
21089;SDS011;10703;51.020;6.128;2023-09-30T12:34:20;5.15;;;4.35;;
21089;SDS011;10703;51.020;6.128;2023-09-30T12:36:52;7.10;;;4.80;;
21089;SDS011;10703;51.020;6.128;2023-09-30T12:39:20;5.88;;;4.43;;
21089;SDS011;10703;51.020;6.128;2023-09-30T12:41:51;7.65;;;4.72;;
21089;SDS011;10703;51.020;6.128;2023-09-30T12:44:18;6.53;;;4.90;;
21089;SDS011;10703;51.020;6.128;2023-09-30T12:46:45;7.82;;;5.57;;
21089;SDS011;10703;51.020;6.128;2023-09-30T12:49:12;6.95;;;4.53;;
21089;SDS011;10703;51.020;6.128;2023-09-30T12:51:40;5.90;;;4.53;;
21089;SDS011;10703;51.020;6.128;2023-09-30T12:54:07;9.23;;;4.85;;
21089;SDS011;10703;51.020;6.128;2023-09-30T12:56:34;7.35;;;4.75;;
21089;SDS011;10703;51.020;6.128;2023-09-30T12:59:01;5.82;;;4.60;;
21089;SDS011;10703;51.020;6.128;2023-09-30T13:01:28;8.43;;;4.85;;
21089;SDS011;10703;51.020;6.128;2023-09-30T13:03:57;6.28;;;4.85;;
21089;SDS011;10703;51.020;6.128;2023-09-30T13:06:24;6.65;;;4.78;;
21089;SDS011;10703;51.020;6.128;2023-09-30T13:08:51;7.53;;;4.80;;
21089;SDS011;10703;51.020;6.128;2023-09-30T13:11:18;11.55;;;5.20;;
21089;SDS011;10703;51.020;6.128;2023-09-30T13:13:45;6.68;;;4.80;;
21089;SDS011;10703;51.020;6.128;2023-09-30T13:16:12;7.28;;;4.70;;
21089;SDS011;10703;51.020;6.128;2023-09-30T13:18:39;8.95;;;4.80;;
21089;SDS011;10703;51.020;6.128;2023-09-30T13:21:05;9.32;;;5.18;;
21089;SDS011;10703;51.020;6.128;2023-09-30T13:23:33;8.65;;;4.60;;
21089;SDS011;10703;51.020;6.128;2023-09-30T13:26:00;9.30;;;4.75;;
21089;SDS011;10703;51.020;6.128;2023-09-30T13:28:27;7.25;;;4.35;;
21089;SDS011;10703;51.020;6.128;2023-09-30T13:30:54;6.07;;;4.82;;
21089;SDS011;10703;51.020;6.128;2023-09-30T13:33:21;8.60;;;5.53;;
21089;SDS011;10703;51.020;6.128;2023-09-30T13:35:48;7.30;;;4.93;;
21089;SDS011;10703;51.020;6.128;2023-09-30T13:38:15;7.05;;;4.78;;
21089;SDS011;10703;51.020;6.128;2023-09-30T13:40:42;6.13;;;4.78;;
21089;SDS011;10703;51.020;6.128;2023-09-30T13:43:09;7.47;;;5.07;;
21089;SDS011;10703;51.020;6.128;2023-09-30T13:45:37;6.85;;;4.72;;
21089;SDS011;10703;51.020;6.128;2023-09-30T13:48:04;8.43;;;5.20;;
21089;SDS011;10703;51.020;6.128;2023-09-30T13:50:31;6.22;;;4.93;;
21089;SDS011;10703;51.020;6.128;2023-09-30T13:52:58;7.53;;;4.93;;
21089;SDS011;10703;51.020;6.128;2023-09-30T13:55:27;7.80;;;5.55;;
21089;SDS011;10703;51.020;6.128;2023-09-30T13:57:53;7.93;;;5.72;;
21089;SDS011;10703;51.020;6.128;2023-09-30T14:00:20;8.02;;;5.57;;
21089;SDS011;10703;51.020;6.128;2023-09-30T14:02:48;6.57;;;5.10;;
21089;SDS011;10703;51.020;6.128;2023-09-30T14:05:16;9.38;;;5.80;;
21089;SDS011;10703;51.020;6.128;2023-09-30T14:07:43;8.18;;;5.38;;
21089;SDS011;10703;51.020;6.128;2023-09-30T14:10:09;7.57;;;5.50;;
21089;SDS011;10703;51.020;6.128;2023-09-30T14:12:37;9.27;;;5.55;;
21089;SDS011;10703;51.020;6.128;2023-09-30T14:15:06;7.65;;;5.53;;
21089;SDS011;10703;51.020;6.128;2023-09-30T14:17:33;6.53;;;5.60;;
21089;SDS011;10703;51.020;6.128;2023-09-30T14:20:01;8.23;;;5.50;;
21089;SDS011;10703;51.020;6.128;2023-09-30T14:22:32;7.20;;;5.18;;
21089;SDS011;10703;51.020;6.128;2023-09-30T14:24:58;8.60;;;5.30;;
21089;SDS011;10703;51.020;6.128;2023-09-30T14:27:25;7.53;;;5.65;;
21089;SDS011;10703;51.020;6.128;2023-09-30T14:29:52;9.20;;;5.82;;
21089;SDS011;10703;51.020;6.128;2023-09-30T14:32:19;8.45;;;6.00;;
21089;SDS011;10703;51.020;6.128;2023-09-30T14:34:46;10.50;;;5.88;;
21089;SDS011;10703;51.020;6.128;2023-09-30T14:37:13;9.88;;;6.25;;
21089;SDS011;10703;51.020;6.128;2023-09-30T14:39:40;10.57;;;6.55;;
21089;SDS011;10703;51.020;6.128;2023-09-30T14:42:06;9.68;;;6.22;;
21089;SDS011;10703;51.020;6.128;2023-09-30T14:44:33;8.90;;;6.25;;
21089;SDS011;10703;51.020;6.128;2023-09-30T14:47:00;12.88;;;6.10;;
21089;SDS011;10703;51.020;6.128;2023-09-30T14:49:26;9.13;;;6.10;;
21089;SDS011;10703;51.020;6.128;2023-09-30T14:51:53;11.95;;;6.90;;
21089;SDS011;10703;51.020;6.128;2023-09-30T14:54:22;10.57;;;6.43;;
21089;SDS011;10703;51.020;6.128;2023-09-30T14:56:49;10.38;;;6.85;;
21089;SDS011;10703;51.020;6.128;2023-09-30T14:59:16;10.48;;;6.65;;